Time;durP1;ratioP1;P1;durP2;ratioP2;P2;SDS_P1;SDS_P2;PMS_P1;PMS_P2;Temp;Humidity;BMP_temperature;BMP_pressure;BME280_temperature;BME280_humidity;BME280_pressure;Samples;Min_cycle;Max_cycle;Signal;HPM_P1;HPM_P2
2021/11/09 00:01:23;;;;;;;0.20;0.20;;;10.20;99.90;;;;;;5016819;28;20224;-65
2021/11/09 00:03:57;;;;;;;0.40;0.40;;;10.40;99.90;;;;;;5017501;28;20250;-65
2021/11/09 00:06:25;;;;;;;0.20;0.20;;;10.40;99.90;;;;;;5017250;28;20467;-66
2021/11/09 00:09:05;;;;;;;0.20;0.10;;;10.20;99.90;;;;;;5016938;28;20226;-66
2021/11/09 00:11:30;;;;;;;0.20;0.10;;;10.10;99.90;;;;;;5017035;28;20170;-67
2021/11/09 00:13:56;;;;;;;0.20;0.20;;;10.10;99.90;;;;;;5017053;28;20186;-66
2021/11/09 00:16:22;;;;;;;0.57;0.57;;;10.10;99.90;;;;;;5016913;28;20562;-66
2021/11/09 00:18:49;;;;;;;0.20;0.20;;;10.10;99.90;;;;;;5016661;28;20421;-67
2021/11/09 00:21:16;;;;;;;0.20;0.20;;;10.10;99.90;;;;;;5017211;28;20182;-66
2021/11/09 00:23:41;;;;;;;0.40;0.40;;;10.00;99.90;;;;;;5016510;28;20208;-64
2021/11/09 00:26:07;;;;;;;0.20;0.20;;;10.00;99.90;;;;;;5016616;28;20175;-64
2021/11/09 00:28:33;;;;;;;0.20;0.20;;;10.00;99.90;;;;;;5016482;28;20527;-67
2021/11/09 00:30:59;;;;;;;0.30;0.20;;;9.90;99.90;;;;;;4999276;28;20791;-67
2021/11/09 00:33:24;;;;;;;0.20;0.20;;;10.10;99.90;;;;;;5015415;28;20266;-67
2021/11/09 00:35:50;;;;;;;0.20;0.20;;;10.20;99.90;;;;;;5017240;28;20175;-66
2021/11/09 00:38:16;;;;;;;0.20;0.10;;;10.30;99.90;;;;;;4999254;28;20588;-65
2021/11/09 00:40:43;;;;;;;0.20;0.20;;;10.40;99.90;;;;;;5017180;28;20508;-67
2021/11/09 00:43:11;;;;;;;0.20;0.20;;;10.60;99.90;;;;;;5017198;28;20257;-66
2021/11/09 00:45:37;;;;;;;0.20;0.20;;;10.60;99.90;;;;;;5016819;28;20213;-66
2021/11/09 00:48:03;;;;;;;0.20;0.20;;;10.70;99.90;;;;;;4999799;28;20268;-66
2021/11/09 00:50:31;;;;;;;0.20;0.20;;;10.50;99.90;;;;;;5016996;28;20181;-67
2021/11/09 00:52:56;;;;;;;0.20;0.20;;;10.20;99.90;;;;;;5017762;28;20182;-67
2021/11/09 00:55:23;;;;;;;0.20;0.20;;;10.30;99.90;;;;;;5016140;28;20178;-66
2021/11/09 00:57:50;;;;;;;0.20;0.20;;;10.20;99.90;;;;;;5018050;28;20201;-65
2021/11/09 01:00:21;;;;;;;0.20;0.20;;;10.20;99.90;;;;;;5017102;28;20185;-67
2021/11/09 01:02:49;;;;;;;0.20;0.10;;;10.20;99.90;;;;;;5016747;28;20177;-67
2021/11/09 01:05:20;;;;;;;0.20;0.20;;;10.40;99.90;;;;;;5016702;28;20202;-66
2021/11/09 01:07:48;;;;;;;0.20;0.20;;;10.40;99.90;;;;;;5016686;28;20186;-67
2021/11/09 01:10:15;;;;;;;0.20;0.10;;;10.50;99.90;;;;;;5016325;28;20202;-66
2021/11/09 01:12:43;;;;;;;0.20;0.20;;;10.30;99.90;;;;;;5017007;28;20170;-65
2021/11/09 01:15:09;;;;;;;0.20;0.20;;;10.30;99.90;;;;;;5016561;28;20178;-67
2021/11/09 01:17:35;;;;;;;0.20;0.20;;;10.20;99.90;;;;;;5016340;28;20205;-67
2021/11/09 01:20:01;;;;;;;0.20;0.20;;;10.10;99.90;;;;;;5016189;28;20492;-66
2021/11/09 01:22:27;;;;;;;0.20;0.20;;;10.20;99.90;;;;;;4999977;28;20225;-66
2021/11/09 01:24:52;;;;;;;0.20;0.20;;;10.10;99.90;;;;;;5017258;28;20252;-66
2021/11/09 01:27:18;;;;;;;0.20;0.20;;;10.10;99.90;;;;;;5017601;28;20421;-66
2021/11/09 01:29:44;;;;;;;0.20;0.20;;;10.00;99.90;;;;;;5017404;28;20243;-65
2021/11/09 01:32:10;;;;;;;0.20;0.10;;;10.00;99.90;;;;;;5017554;28;20186;-65
2021/11/09 01:34:36;;;;;;;0.20;0.20;;;10.00;99.90;;;;;;5018077;28;20611;-66
2021/11/09 01:37:02;;;;;;;0.20;0.20;;;10.10;99.90;;;;;;5017471;28;20181;-66
2021/11/09 01:39:27;;;;;;;0.20;0.10;;;10.20;99.90;;;;;;4997981;28;20205;-66
2021/11/09 01:41:53;;;;;;;0.23;0.20;;;10.20;99.90;;;;;;5016195;28;20269;-66
2021/11/09 01:44:19;;;;;;;0.20;0.10;;;10.10;99.90;;;;;;5016079;28;20297;-66
2021/11/09 01:46:45;;;;;;;0.20;0.20;;;10.10;99.90;;;;;;5016019;28;20181;-66
2021/11/09 01:49:11;;;;;;;0.20;0.10;;;10.30;99.90;;;;;;4998684;28;20174;-66
2021/11/09 01:51:37;;;;;;;0.20;0.20;;;10.40;99.90;;;;;;5015780;28;20265;-66
2021/11/09 01:54:05;;;;;;;0.20;0.20;;;10.40;99.90;;;;;;5000061;28;20492;-66
2021/11/09 01:56:32;;;;;;;0.20;0.10;;;10.40;99.90;;;;;;5016826;28;20182;-66
2021/11/09 01:58:58;;;;;;;0.32;0.32;;;10.40;99.90;;;;;;5015444;28;20181;-66
2021/11/09 02:01:26;;;;;;;0.20;0.20;;;10.40;99.90;;;;;;5015657;28;20187;-66
2021/11/09 02:03:54;;;;;;;0.20;0.20;;;10.50;99.90;;;;;;4999038;28;20288;-66
2021/11/09 02:06:21;;;;;;;0.20;0.20;;;10.40;99.90;;;;;;5015124;28;20608;-66
2021/11/09 02:08:48;;;;;;;0.20;0.20;;;10.40;99.90;;;;;;5015660;28;20182;-66
2021/11/09 02:11:14;;;;;;;0.20;0.20;;;10.20;99.90;;;;;;5015662;28;20269;-66
2021/11/09 02:13:42;;;;;;;0.20;0.13;;;10.20;99.90;;;;;;4999777;28;20272;-66
2021/11/09 02:16:09;;;;;;;0.20;0.20;;;10.10;99.90;;;;;;4999432;28;20425;-67
2021/11/09 02:18:35;;;;;;;0.20;0.20;;;10.00;99.90;;;;;;5014970;28;20182;-67
2021/11/09 02:21:11;;;;;;;0.20;0.20;;;10.20;99.90;;;;;;5015337;28;20212;-66
2021/11/09 02:23:42;;;;;;;0.20;0.10;;;10.20;99.90;;;;;;4997934;28;20204;-67
2021/11/09 02:26:11;;;;;;;0.20;0.20;;;10.30;99.90;;;;;;4997941;28;20562;-67
2021/11/09 02:28:38;;;;;;;0.20;0.20;;;10.40;99.90;;;;;;5014520;28;20182;-67
2021/11/09 02:31:06;;;;;;;0.20;0.20;;;10.50;99.90;;;;;;5015001;28;20193;-66
2021/11/09 02:33:32;;;;;;;0.35;0.35;;;10.50;99.90;;;;;;5015009;28;20539;-65
2021/11/09 02:35:58;;;;;;;0.20;0.10;;;10.60;99.90;;;;;;5015128;28;20178;-66
2021/11/09 02:38:24;;;;;;;0.20;0.20;;;10.60;99.90;;;;;;5014542;28;20268;-66
2021/11/09 02:40:49;;;;;;;0.20;0.20;;;10.50;99.90;;;;;;5014747;28;20622;-67
2021/11/09 02:43:16;;;;;;;0.20;0.20;;;10.40;99.90;;;;;;5014398;28;20595;-67
2021/11/09 02:46:13;;;;;;;0.20;0.20;;;10.50;99.90;;;;;;5014748;28;20237;-66
2021/11/09 02:48:32;;;;;;;0.20;0.20;;;10.40;99.90;;;;;;5013445;28;20574;-66
2021/11/09 02:51:07;;;;;;;0.20;0.20;;;10.40;99.90;;;;;;5014870;28;20182;-66
2021/11/09 02:53:38;;;;;;;0.20;0.20;;;10.30;99.90;;;;;;5015981;28;20227;-66
2021/11/09 02:56:12;;;;;;;0.20;0.20;;;10.20;99.90;;;;;;5016164;28;20185;-66
2021/11/09 02:58:49;;;;;;;0.20;0.10;;;10.20;99.90;;;;;;5014635;28;20208;-66
2021/11/09 03:05:05;;;;;;;0.20;0.10;;;10.20;99.90;;;;;;5014773;28;20256;-66
2021/11/09 03:07:03;;;;;;;0.20;0.20;;;10.20;99.90;;;;;;5005481;28;20186;-66
2021/11/09 03:10:20;;;;;;;0.30;0.30;;;10.00;99.90;;;;;;5014356;28;20200;-66
2021/11/09 03:12:20;;;;;;;7.63;7.20;;;9.80;99.90;;;;;;5008989;28;20251;-66
2021/11/09 03:14:45;;;;;;;0.20;0.10;;;9.70;99.90;;;;;;5016025;28;20703;-65
2021/11/09 03:17:22;;;;;;;0.20;0.20;;;9.80;99.90;;;;;;5015692;28;20220;-65
2021/11/09 03:47:06;;;;;;;1.80;1.70;;;10.10;99.90;;;;;;4999782;28;20656;-67
2021/11/09 03:49:35;;;;;;;0.50;0.40;;;10.10;99.90;;;;;;5015412;28;20269;-65
2021/11/09 03:52:07;;;;;;;0.30;0.20;;;10.10;99.90;;;;;;5015653;28;20174;-66
2021/11/09 03:54:33;;;;;;;0.20;0.10;;;10.00;99.90;;;;;;5015861;28;20646;-66
2021/11/09 04:05:01;;;;;;;0.30;0.20;;;10.50;99.90;;;;;;5014241;28;20221;-66
2021/11/09 04:07:47;;;;;;;0.25;0.15;;;10.50;99.90;;;;;;5014052;28;20608;-67
2021/11/09 04:15:59;;;;;;;0.25;0.22;;;10.50;99.90;;;;;;4953786;29;20212;-66
2021/11/09 04:26:45;;;;;;;0.20;0.20;;;10.40;99.90;;;;;;5013909;28;20192;-66
2021/11/09 04:29:23;;;;;;;0.52;0.52;;;10.30;99.90;;;;;;5014178;28;20197;-66
2021/11/09 04:53:49;;;;;;;0.30;0.20;;;10.00;99.90;;;;;;5001082;28;20199;-65
2021/11/09 05:09:53;;;;;;;0.20;0.20;;;10.30;99.90;;;;;;5015896;28;20189;-65
2021/11/09 05:12:19;;;;;;;0.20;0.20;;;10.30;99.90;;;;;;5015942;28;20616;-66
2021/11/09 05:14:44;;;;;;;0.20;0.10;;;10.20;99.90;;;;;;5015930;28;20269;-65
2021/11/09 05:17:10;;;;;;;0.20;0.10;;;10.20;99.90;;;;;;5015941;28;20213;-65
2021/11/09 05:19:35;;;;;;;0.70;0.70;;;10.20;99.90;;;;;;5015610;28;20188;-66
2021/11/09 05:22:01;;;;;;;0.50;0.50;;;10.00;99.90;;;;;;5015715;28;20256;-66
2021/11/09 05:24:26;;;;;;;0.20;0.20;;;9.90;99.90;;;;;;4998337;28;20213;-66
2021/11/09 05:26:55;;;;;;;0.20;0.20;;;9.90;99.90;;;;;;5015735;28;20189;-66
2021/11/09 05:29:20;;;;;;;0.20;0.20;;;9.90;99.90;;;;;;5015362;28;20199;-66
2021/11/09 05:31:46;;;;;;;0.60;0.40;;;9.90;99.90;;;;;;5015683;28;20674;-65
2021/11/09 05:34:12;;;;;;;0.30;0.10;;;9.80;99.90;;;;;;5015576;28;20488;-65
2021/11/09 05:36:41;;;;;;;0.20;0.20;;;9.80;99.90;;;;;;5015533;28;20201;-66
2021/11/09 05:39:16;;;;;;;0.20;0.17;;;9.70;99.90;;;;;;5015116;28;20300;-66
2021/11/09 05:41:43;;;;;;;2.65;2.45;;;9.80;99.90;;;;;;5014866;28;20495;-66
2021/11/09 05:44:10;;;;;;;0.20;0.20;;;9.70;99.90;;;;;;5015074;28;20307;-66
2021/11/09 05:46:37;;;;;;;0.20;0.20;;;9.80;99.90;;;;;;4998185;28;20189;-65
2021/11/09 05:49:03;;;;;;;0.50;0.50;;;9.80;99.90;;;;;;5015267;28;20208;-65
2021/11/09 05:51:29;;;;;;;1.70;1.65;;;9.90;99.90;;;;;;4998984;28;20181;-65
2021/11/09 05:53:55;;;;;;;0.32;0.32;;;9.90;99.90;;;;;;4998738;28;20185;-65
2021/11/09 05:56:21;;;;;;;0.20;0.20;;;10.00;99.90;;;;;;5016310;28;20185;-65
2021/11/09 05:58:47;;;;;;;0.20;0.20;;;10.10;99.90;;;;;;5015445;28;20618;-65
2021/11/09 06:01:12;;;;;;;0.30;0.20;;;9.90;99.90;;;;;;5016226;28;20471;-65
2021/11/09 06:03:38;;;;;;;0.20;0.20;;;9.80;99.90;;;;;;5016595;28;20181;-65
2021/11/09 06:06:04;;;;;;;0.20;0.20;;;9.80;99.90;;;;;;4999431;28;20197;-65
2021/11/09 06:08:30;;;;;;;0.43;0.43;;;9.80;99.90;;;;;;5015684;28;20467;-65
2021/11/09 06:10:56;;;;;;;0.20;0.20;;;9.90;99.90;;;;;;5016078;28;20185;-65
2021/11/09 06:13:22;;;;;;;0.20;0.20;;;10.10;99.90;;;;;;5016304;28;20528;-66
2021/11/09 06:15:47;;;;;;;0.20;0.10;;;10.20;99.90;;;;;;5016147;28;20178;-66
2021/11/09 06:18:13;;;;;;;0.20;0.20;;;10.20;99.90;;;;;;5015304;28;20208;-66
2021/11/09 06:20:38;;;;;;;0.47;0.47;;;10.30;99.90;;;;;;5014732;28;20258;-67
2021/11/09 06:23:04;;;;;;;0.20;0.20;;;10.50;99.90;;;;;;5014592;28;20197;-67
2021/11/09 06:25:30;;;;;;;0.77;0.77;;;10.30;99.90;;;;;;5014584;28;20554;-67
2021/11/09 06:27:56;;;;;;;0.20;0.10;;;10.40;99.90;;;;;;5014125;28;20420;-67
2021/11/09 06:30:22;;;;;;;0.40;0.40;;;10.40;99.90;;;;;;4997375;28;20614;-67
2021/11/09 06:32:48;;;;;;;0.30;0.20;;;10.60;99.90;;;;;;5014629;28;20491;-67
2021/11/09 06:35:14;;;;;;;0.40;0.40;;;10.50;99.90;;;;;;5014471;28;20227;-67
2021/11/09 06:37:39;;;;;;;0.83;0.83;;;10.40;99.90;;;;;;5014723;28;20567;-67
2021/11/09 06:40:07;;;;;;;0.30;0.23;;;10.40;99.90;;;;;;5014527;28;20178;-67
2021/11/09 06:42:34;;;;;;;0.20;0.10;;;10.40;99.90;;;;;;5013975;28;20636;-67
2021/11/09 06:45:00;;;;;;;0.20;0.20;;;10.50;99.90;;;;;;4996724;28;20217;-68
2021/11/09 06:47:25;;;;;;;0.63;0.63;;;10.50;99.90;;;;;;4996983;28;20273;-66
2021/11/09 06:49:51;;;;;;;1.50;1.50;;;10.30;99.90;;;;;;5013800;28;20185;-67
2021/11/09 06:52:17;;;;;;;0.20;0.20;;;10.20;99.90;;;;;;5013805;28;20178;-67
2021/11/09 06:54:44;;;;;;;1.10;1.10;;;10.10;99.90;;;;;;4996154;28;20686;-67
2021/11/09 06:57:10;;;;;;;0.20;0.20;;;10.00;99.90;;;;;;5013804;28;20244;-67
2021/11/09 06:59:36;;;;;;;0.20;0.20;;;10.00;99.90;;;;;;5013627;28;20206;-67
2021/11/09 07:02:03;;;;;;;0.67;0.67;;;10.10;99.90;;;;;;5013747;28;20182;-67
2021/11/09 07:04:29;;;;;;;1.50;1.40;;;10.00;99.90;;;;;;5013673;28;20467;-67
2021/11/09 07:06:55;;;;;;;0.20;0.10;;;9.80;99.90;;;;;;5013870;28;20205;-67
2021/11/09 07:09:22;;;;;;;0.20;0.10;;;9.60;99.90;;;;;;5013482;28;20635;-67
2021/11/09 07:11:48;;;;;;;0.20;0.20;;;9.60;99.90;;;;;;5013827;28;20200;-68
2021/11/09 07:14:14;;;;;;;0.20;0.10;;;9.50;99.90;;;;;;4993261;28;20396;-67
2021/11/09 07:16:42;;;;;;;0.83;0.43;;;9.50;99.90;;;;;;5007392;28;20289;-67
2021/11/09 07:19:09;;;;;;;0.20;0.20;;;9.30;99.90;;;;;;5010206;28;20440;-67
2021/11/09 07:21:35;;;;;;;0.22;0.17;;;9.30;99.90;;;;;;5014070;28;20188;-68
2021/11/09 07:24:01;;;;;;;0.20;0.20;;;9.30;99.90;;;;;;5014228;28;20266;-68
2021/11/09 07:26:27;;;;;;;0.20;0.10;;;9.30;99.90;;;;;;5014311;28;20186;-68
2021/11/09 07:28:53;;;;;;;0.20;0.10;;;9.20;99.90;;;;;;5011148;28;20662;-68
2021/11/09 07:31:19;;;;;;;0.30;0.30;;;9.30;99.90;;;;;;5013028;28;20570;-67
2021/11/09 07:33:46;;;;;;;0.20;0.20;;;9.20;99.90;;;;;;5013354;28;20177;-69
2021/11/09 07:36:12;;;;;;;0.50;0.50;;;9.20;99.90;;;;;;5013098;28;20523;-68
2021/11/09 07:38:38;;;;;;;2.15;0.57;;;9.10;99.90;;;;;;5012751;28;20235;-67
2021/11/09 07:41:04;;;;;;;0.63;0.63;;;9.10;99.90;;;;;;5013519;28;20208;-67
2021/11/09 07:43:29;;;;;;;0.20;0.15;;;9.20;99.90;;;;;;5013290;28;20223;-65
2021/11/09 07:45:55;;;;;;;0.20;0.20;;;9.00;99.90;;;;;;5013202;28;20209;-66
2021/11/09 07:48:21;;;;;;;0.20;0.20;;;9.00;99.90;;;;;;5012863;28;20180;-65
2021/11/09 07:50:47;;;;;;;0.20;0.10;;;9.10;99.90;;;;;;5013926;28;20209;-67
2021/11/09 07:53:15;;;;;;;0.33;0.33;;;9.10;99.90;;;;;;5011790;28;20531;-65
2021/11/09 07:55:51;;;;;;;0.20;0.20;;;9.20;99.90;;;;;;5013962;28;20591;-64
2021/11/09 07:58:29;;;;;;;0.40;0.40;;;9.10;99.90;;;;;;5013951;28;20181;-69
2021/11/09 08:01:06;;;;;;;0.95;0.95;;;9.20;99.90;;;;;;4996650;28;20190;-66
2021/11/09 08:04:17;;;;;;;0.20;0.20;;;9.30;99.90;;;;;;5013501;28;20271;-66
2021/11/09 08:08:58;;;;;;;0.20;0.10;;;9.30;99.90;;;;;;5017044;28;20634;-64
2021/11/09 08:11:24;;;;;;;0.32;0.32;;;9.40;99.90;;;;;;5030927;28;20186;-68
2021/11/09 08:13:50;;;;;;;0.20;0.20;;;9.40;99.90;;;;;;5016626;28;20194;-67
2021/11/09 08:16:17;;;;;;;0.20;0.10;;;9.40;99.90;;;;;;5016099;28;20193;-64
2021/11/09 08:18:44;;;;;;;0.30;0.20;;;9.40;99.90;;;;;;5016655;28;20195;-64
2021/11/09 08:21:12;;;;;;;2.75;2.10;;;9.50;99.90;;;;;;4999174;28;20619;-62
2021/11/09 08:23:38;;;;;;;0.20;0.20;;;9.70;99.90;;;;;;5016706;28;20186;-65
2021/11/09 08:26:04;;;;;;;0.30;0.30;;;9.80;99.90;;;;;;5016261;28;20202;-66
2021/11/09 08:28:30;;;;;;;0.20;0.20;;;9.90;99.90;;;;;;5016370;28;20447;-67
2021/11/09 08:31:02;;;;;;;0.77;0.77;;;9.80;99.90;;;;;;5017206;28;20436;-66
2021/11/09 08:33:29;;;;;;;0.20;0.20;;;10.00;99.90;;;;;;5017016;28;20243;-66
2021/11/09 08:35:56;;;;;;;0.82;0.82;;;10.20;99.90;;;;;;5016801;28;20689;-66
2021/11/09 08:38:22;;;;;;;0.50;0.47;;;10.20;99.90;;;;;;5016083;28;20198;-65
2021/11/09 08:40:50;;;;;;;0.97;0.87;;;10.20;99.90;;;;;;5016182;28;20251;-64
2021/11/09 08:43:19;;;;;;;0.30;0.20;;;10.30;99.90;;;;;;5014751;28;20627;-64
2021/11/09 08:46:19;;;;;;;1.85;1.75;;;10.20;99.90;;;;;;5016164;28;20226;-64
2021/11/09 08:48:41;;;;;;;0.28;0.25;;;10.20;99.90;;;;;;5012587;28;20193;-65
2021/11/09 08:51:09;;;;;;;0.40;0.30;;;10.40;99.90;;;;;;5006858;28;20181;-65
2021/11/09 08:53:45;;;;;;;0.30;0.20;;;10.30;99.90;;;;;;5015980;28;20174;-66
2021/11/09 08:56:22;;;;;;;0.20;0.20;;;10.50;99.90;;;;;;5016110;28;20626;-66
2021/11/09 09:04:18;;;;;;;2.20;2.10;;;11.00;99.90;;;;;;5015144;28;20205;-66
2021/11/09 09:06:49;;;;;;;0.30;0.30;;;10.90;99.90;;;;;;5013146;28;20274;-66
2021/11/09 09:09:16;;;;;;;2.08;0.80;;;10.90;99.90;;;;;;5019586;28;20527;-67
2021/11/09 09:11:47;;;;;;;0.73;0.73;;;10.80;99.90;;;;;;5016463;28;20241;-67
2021/11/09 09:14:14;;;;;;;0.32;0.32;;;10.70;99.90;;;;;;4999095;28;20540;-68
2021/11/09 09:16:45;;;;;;;0.20;0.20;;;10.80;99.90;;;;;;5015834;28;20240;-68
2021/11/09 09:19:11;;;;;;;0.22;0.15;;;10.80;99.90;;;;;;5015821;28;20611;-66
2021/11/09 09:27:04;;;;;;;0.88;0.88;;;11.00;99.90;;;;;;4975072;28;20208;-67
2021/11/09 09:29:48;;;;;;;0.30;0.20;;;11.20;99.90;;;;;;4998184;28;20685;-68
2021/11/09 09:56:55;;;;;;;0.50;0.50;;;11.60;94.30;;;;;;5015643;28;20316;-68
2021/11/09 09:59:23;;;;;;;0.43;0.40;;;11.50;20.30;;;;;;5014413;28;20216;-68
2021/11/09 10:02:25;;;;;;;0.30;0.20;;;11.60;1.00;;;;;;5014851;28;20257;-69
2021/11/09 10:05:11;;;;;;;1.30;1.20;;;11.70;1.00;;;;;;5014794;28;20229;-68
2021/11/09 10:07:40;;;;;;;1.65;1.65;;;11.90;1.00;;;;;;4997364;28;20174;-67
2021/11/09 10:10:12;;;;;;;0.30;0.20;;;12.00;1.00;;;;;;5014233;28;20230;-67
2021/11/09 10:12:40;;;;;;;3.08;2.80;;;12.00;1.00;;;;;;4997284;28;20193;-66
2021/11/09 10:15:16;;;;;;;2.15;1.55;;;11.90;1.00;;;;;;5014758;28;20217;-67
2021/11/09 10:17:46;;;;;;;6.88;3.47;;;11.80;1.00;;;;;;4996644;28;20277;-67
2021/11/09 10:20:22;;;;;;;0.63;0.63;;;11.70;1.00;;;;;;5014232;28;20577;-67
2021/11/09 10:22:52;;;;;;;2.55;0.70;;;11.90;1.00;;;;;;5014375;28;20536;-68
2021/11/09 10:25:20;;;;;;;2.47;0.77;;;11.80;1.00;;;;;;5014419;28;20210;-68
2021/11/09 10:27:48;;;;;;;8.35;2.85;;;12.00;1.00;;;;;;5013919;28;20182;-69
2021/11/09 10:30:20;;;;;;;28.58;1.83;;;11.90;99.90;;;;;;5014297;28;20174;-67
2021/11/09 10:32:46;;;;;;;1.75;1.45;;;11.90;99.90;;;;;;5014211;28;20198;-67
2021/11/09 10:35:13;;;;;;;0.30;0.20;;;12.00;99.90;;;;;;5014615;28;20174;-68
2021/11/09 10:37:45;;;;;;;0.68;0.50;;;12.10;99.90;;;;;;5014257;28;20194;-66
2021/11/09 10:40:17;;;;;;;0.30;0.20;;;12.10;99.90;;;;;;5013464;28;20200;-67
2021/11/09 10:42:46;;;;;;;0.77;0.77;;;12.20;99.90;;;;;;4996813;28;20239;-66
2021/11/09 10:45:14;;;;;;;0.50;0.30;;;12.20;99.90;;;;;;5013254;28;20217;-70
2021/11/09 10:47:42;;;;;;;3.22;2.95;;;12.20;1.00;;;;;;5013889;28;20240;-69
2021/11/09 10:50:18;;;;;;;1.45;1.40;;;12.30;1.00;;;;;;5013175;28;20178;-67
2021/11/09 10:52:43;;;;;;;3.88;2.50;;;12.30;1.00;;;;;;5013872;28;20173;-66
2021/11/09 10:55:17;;;;;;;0.40;0.40;;;12.10;1.00;;;;;;4995315;28;20620;-67
2021/11/09 11:06:16;;;;;;;0.85;0.85;;;12.30;1.00;;;;;;5013810;28;20285;-65
2021/11/09 11:08:43;;;;;;;2.50;2.30;;;12.20;1.00;;;;;;5004523;28;20228;-65
2021/11/09 11:11:19;;;;;;;0.45;0.45;;;12.30;1.00;;;;;;5013776;28;20631;-65
2021/11/09 11:13:45;;;;;;;3.20;1.92;;;12.30;99.90;;;;;;5014084;28;20196;-66
2021/11/09 11:16:14;;;;;;;0.30;0.20;;;12.20;99.90;;;;;;5028732;28;20194;-66
2021/11/09 11:18:46;;;;;;;2.20;2.05;;;12.40;1.00;;;;;;5015836;28;20174;-67
2021/11/09 11:21:15;;;;;;;1.05;0.65;;;12.20;99.90;;;;;;5013341;28;20170;-67
2021/11/09 11:23:42;;;;;;;0.73;0.73;;;12.40;24.40;;;;;;4996724;28;20206;-65
2021/11/09 11:26:09;;;;;;;1.73;1.63;;;12.60;1.00;;;;;;4995866;28;20209;-65
2021/11/09 11:28:37;;;;;;;1.40;0.93;;;12.60;1.00;;;;;;5013410;28;20186;-63
2021/11/09 11:31:04;;;;;;;0.40;0.38;;;12.60;1.00;;;;;;5013571;28;20282;-65
2021/11/09 11:33:30;;;;;;;1.38;1.38;;;12.70;99.90;;;;;;4996067;28;20236;-65
2021/11/09 11:35:56;;;;;;;2.10;2.00;;;12.70;1.00;;;;;;5013167;28;20178;-64
2021/11/09 11:38:23;;;;;;;0.90;0.90;;;12.60;1.00;;;;;;5012570;28;20449;-64
2021/11/09 11:40:55;;;;;;;2.80;2.60;;;12.60;99.90;;;;;;5016900;28;20178;-63
2021/11/09 11:43:42;;;;;;;1.77;1.13;;;12.60;1.00;;;;;;5017442;28;20249;-64
2021/11/09 11:46:12;;;;;;;0.65;0.63;;;12.70;1.00;;;;;;5017318;28;20297;-64
2021/11/09 11:49:03;;;;;;;0.30;0.20;;;12.70;99.90;;;;;;5016749;28;20559;-64
2021/11/09 11:51:39;;;;;;;0.45;0.40;;;12.80;99.90;;;;;;5017337;28;20166;-64
2021/11/09 11:54:07;;;;;;;0.63;0.63;;;12.90;99.90;;;;;;5016816;28;20181;-66
2021/11/09 11:56:43;;;;;;;1.38;1.27;;;12.80;99.90;;;;;;5017608;28;20198;-67
2021/11/09 11:59:37;;;;;;;0.40;0.30;;;12.70;1.00;;;;;;5016637;28;20184;-66
2021/11/09 12:02:06;;;;;;;0.73;0.65;;;12.70;1.00;;;;;;5017147;28;20178;-66
2021/11/09 12:04:40;;;;;;;0.68;0.65;;;12.70;1.00;;;;;;5014324;28;20246;-66
2021/11/09 12:07:07;;;;;;;2.40;1.30;;;12.60;67.30;;;;;;4999956;28;20247;-66
2021/11/09 12:09:38;;;;;;;0.30;0.20;;;12.60;1.00;;;;;;4999270;28;20220;-66
2021/11/09 12:12:19;;;;;;;0.40;0.30;;;12.70;99.90;;;;;;5016574;28;20214;-66
2021/11/09 12:14:51;;;;;;;1.58;1.48;;;12.70;99.90;;;;;;5019735;28;20192;-65
2021/11/09 12:17:35;;;;;;;0.68;0.63;;;12.60;99.90;;;;;;5036636;28;20177;-65
2021/11/09 12:20:05;;;;;;;5.18;0.50;;;12.80;1.00;;;;;;5029946;28;20182;-63
2021/11/09 12:22:52;;;;;;;9.27;0.68;;;12.80;1.00;;;;;;5016394;28;20178;-65
2021/11/09 12:25:35;;;;;;;0.40;0.30;;;12.90;99.90;;;;;;5016631;28;20292;-65
2021/11/09 12:28:12;;;;;;;4.72;3.20;;;12.90;1.00;;;;;;5016501;28;20178;-65
2021/11/09 12:30:44;;;;;;;0.77;0.75;;;13.00;1.00;;;;;;5016181;28;20186;-64
2021/11/09 12:33:15;;;;;;;0.30;0.20;;;12.80;1.00;;;;;;5017200;28;20174;-66
2021/11/09 12:35:47;;;;;;;0.30;0.20;;;12.90;1.00;;;;;;5016701;28;20182;-66
2021/11/09 12:38:21;;;;;;;1.58;0.95;;;13.10;99.90;;;;;;4998591;28;20209;-65
2021/11/09 12:40:56;;;;;;;0.30;0.20;;;13.00;1.00;;;;;;5016149;28;20182;-65
2021/11/09 12:43:27;;;;;;;3.65;3.42;;;13.00;99.90;;;;;;5017342;28;20189;-65
2021/11/09 12:46:30;;;;;;;2.20;0.80;;;12.90;97.70;;;;;;5016020;28;20236;-65
2021/11/09 12:48:58;;;;;;;0.30;0.10;;;12.90;99.90;;;;;;5016292;28;20174;-65
2021/11/09 12:51:27;;;;;;;0.45;0.30;;;13.10;1.00;;;;;;5016024;28;20174;-65
2021/11/09 12:53:55;;;;;;;0.52;0.40;;;13.10;1.00;;;;;;5015969;28;20265;-65
2021/11/09 12:56:34;;;;;;;3.45;3.20;;;12.80;1.00;;;;;;5016011;28;20176;-66
2021/11/09 13:10:22;;;;;;;0.40;0.38;;;13.10;1.00;;;;;;4971792;28;20208;-66
2021/11/09 13:12:50;;;;;;;0.68;0.68;;;12.90;1.00;;;;;;5015679;28;20273;-65
2021/11/09 13:15:18;;;;;;;0.70;0.60;;;12.90;1.00;;;;;;5023527;28;20668;-65
2021/11/09 13:17:52;;;;;;;0.95;0.95;;;13.00;1.00;;;;;;5035659;28;20246;-67
2021/11/09 13:20:21;;;;;;;0.82;0.82;;;13.00;99.90;;;;;;5026160;28;20622;-66
2021/11/09 13:23:01;;;;;;;0.30;0.20;;;12.90;1.00;;;;;;5015488;28;20178;-67
2021/11/09 13:25:37;;;;;;;0.30;0.20;;;12.90;41.40;;;;;;5015758;28;20243;-64
2021/11/09 13:28:15;;;;;;;0.80;0.80;;;13.10;99.90;;;;;;5015413;28;20166;-64
2021/11/09 13:30:44;;;;;;;0.65;0.65;;;13.10;1.00;;;;;;4998047;28;20513;-65
2021/11/09 13:33:10;;;;;;;0.30;0.20;;;12.90;1.00;;;;;;5014810;28;20181;-65
2021/11/09 13:35:46;;;;;;;0.40;0.40;;;12.80;1.00;;;;;;5015383;28;20201;-65
2021/11/09 13:38:12;;;;;;;1.15;1.05;;;12.70;1.00;;;;;;4997505;28;20208;-65
2021/11/09 13:40:41;;;;;;;0.70;0.60;;;12.60;1.00;;;;;;5015561;28;20186;-65
2021/11/09 13:43:08;;;;;;;0.35;0.22;;;12.50;1.00;;;;;;4998049;28;20221;-66
2021/11/09 13:45:36;;;;;;;0.30;0.20;;;12.60;1.00;;;;;;4997898;28;20295;-65
2021/11/09 13:48:20;;;;;;;0.45;0.35;;;12.60;1.00;;;;;;5015003;28;20201;-66
2021/11/09 13:50:51;;;;;;;1.33;0.40;;;12.50;1.00;;;;;;5015399;28;20171;-66
2021/11/09 13:53:25;;;;;;;0.30;0.17;;;12.60;1.00;;;;;;4981682;28;20212;-66
2021/11/09 13:55:51;;;;;;;0.40;0.38;;;12.60;1.00;;;;;;5014812;28;20181;-64
2021/11/09 13:58:17;;;;;;;0.50;0.50;;;12.50;1.00;;;;;;5014495;28;20217;-63
2021/11/09 14:01:00;;;;;;;0.40;0.30;;;12.60;1.00;;;;;;5014699;28;20608;-64
2021/11/09 14:03:33;;;;;;;0.40;0.30;;;12.60;1.00;;;;;;5014342;28;20428;-64
2021/11/09 14:06:33;;;;;;;0.30;0.30;;;12.50;1.00;;;;;;4996668;28;20313;-64
2021/11/09 14:12:21;;;;;;;0.40;0.25;;;12.60;1.00;;;;;;4935213;29;20383;-66
2021/11/09 14:15:10;;;;;;;0.30;0.20;;;12.50;1.00;;;;;;4935061;29;20181;-65
2021/11/09 14:17:35;;;;;;;0.30;0.20;;;12.40;13.80;;;;;;4994794;28;20625;-64
2021/11/09 14:20:12;;;;;;;0.85;0.85;;;12.30;1.00;;;;;;4996422;28;20186;-65
2021/11/09 14:22:38;;;;;;;0.40;0.30;;;12.30;99.90;;;;;;5014197;28;20541;-66
2021/11/09 14:25:06;;;;;;;0.30;0.20;;;12.30;99.90;;;;;;5014320;28;20217;-66
2021/11/09 14:27:38;;;;;;;0.30;0.20;;;12.40;99.90;;;;;;5007666;28;20273;-65
2021/11/09 14:30:07;;;;;;;0.82;0.82;;;12.50;1.00;;;;;;5004450;28;20232;-67
2021/11/09 14:32:36;;;;;;;0.30;0.20;;;12.40;99.90;;;;;;5014040;28;20635;-65
2021/11/09 14:35:16;;;;;;;0.30;0.20;;;12.20;1.00;;;;;;5006631;28;20190;-67
2021/11/09 14:40:33;;;;;;;0.40;0.40;;;12.20;1.00;;;;;;5013815;28;20272;-66
2021/11/09 14:43:53;;;;;;;0.30;0.20;;;12.20;99.90;;;;;;5014081;28;20189;-66
2021/11/09 14:46:14;;;;;;;0.30;0.20;;;12.30;99.90;;;;;;5010409;28;20227;-66
2021/11/09 14:51:30;;;;;;;0.30;0.20;;;12.50;99.90;;;;;;5013492;28;20490;-66
2021/11/09 14:54:16;;;;;;;0.30;0.20;;;12.50;99.90;;;;;;5013627;28;20544;-67
2021/11/09 14:56:42;;;;;;;0.30;0.20;;;12.40;1.00;;;;;;5014038;28;20183;-65
2021/11/09 14:59:15;;;;;;;0.30;0.20;;;12.30;99.90;;;;;;5013396;28;20285;-65
2021/11/09 15:01:47;;;;;;;0.30;0.20;;;12.30;99.90;;;;;;5013375;28;20428;-64
2021/11/09 15:04:28;;;;;;;0.30;0.20;;;12.10;1.00;;;;;;5013501;28;20197;-66
2021/11/09 15:07:39;;;;;;;0.45;0.40;;;12.10;1.00;;;;;;5012993;28;20584;-66
2021/11/09 15:28:32;;;;;;;0.30;0.20;;;11.60;1.00;;;;;;5013284;28;20607;-68
2021/11/09 15:31:08;;;;;;;0.30;0.20;;;11.50;1.00;;;;;;5013537;28;20294;-66
2021/11/09 15:33:48;;;;;;;0.30;0.20;;;11.40;1.00;;;;;;4995862;28;20231;-65
2021/11/09 15:36:30;;;;;;;0.30;0.20;;;11.30;99.90;;;;;;5013462;28;20190;-64
2021/11/09 15:38:56;;;;;;;0.90;0.90;;;11.30;99.90;;;;;;5012700;28;20201;-65
2021/11/09 15:41:22;;;;;;;0.30;0.20;;;11.20;99.90;;;;;;5012943;28;20646;-67
2021/11/09 15:43:48;;;;;;;0.30;0.20;;;11.10;1.00;;;;;;5013725;28;20224;-64
2021/11/09 15:46:14;;;;;;;0.30;0.20;;;11.10;1.00;;;;;;5012854;28;20241;-65
2021/11/09 15:48:40;;;;;;;0.30;0.20;;;11.10;1.00;;;;;;4988104;28;20536;-67
2021/11/09 15:51:06;;;;;;;0.30;0.20;;;11.30;1.00;;;;;;5008652;28;20440;-66
2021/11/09 15:53:32;;;;;;;0.30;0.30;;;11.10;99.90;;;;;;5006155;28;20503;-67
2021/11/09 15:55:59;;;;;;;0.30;0.20;;;11.00;1.00;;;;;;5013801;28;20178;-66
2021/11/09 15:58:26;;;;;;;0.30;0.20;;;10.90;1.00;;;;;;5013939;28;20186;-65